createdAt,value
2018-04-13T00:01:57.049Z,2.00
2018-04-13T00:04:23.008Z,1.60
2018-04-13T00:06:49.403Z,1.67
2018-04-13T00:09:15.374Z,1.70
2018-04-13T00:11:41.325Z,2.00
2018-04-13T00:14:07.293Z,1.87
2018-04-13T00:16:33.262Z,1.90
2018-04-13T00:18:59.217Z,1.80
2018-04-13T00:21:25.194Z,1.97
2018-04-13T00:23:51.166Z,2.10
2018-04-13T00:26:17.145Z,1.80
2018-04-13T00:28:43.101Z,1.60
2018-04-13T00:31:09.072Z,1.70
2018-04-13T00:33:35.021Z,1.80
2018-04-13T00:36:01.002Z,1.80
2018-04-13T00:38:26.965Z,1.70
2018-04-13T00:40:52.918Z,2.20
2018-04-13T00:43:18.896Z,1.70
2018-04-13T00:45:44.857Z,1.90
2018-04-13T00:48:10.840Z,2.13
2018-04-13T00:50:36.791Z,1.77
2018-04-13T00:53:08.786Z,1.70
2018-04-13T00:55:34.729Z,1.83
2018-04-13T00:58:00.719Z,1.90
2018-04-13T01:00:26.686Z,1.90
2018-04-13T01:02:52.657Z,2.20
2018-04-13T01:05:18.623Z,2.30
2018-04-13T01:07:44.586Z,2.10
2018-04-13T01:10:10.537Z,2.23
2018-04-13T01:12:36.513Z,2.40
2018-04-13T01:15:02.534Z,1.90
2018-04-13T01:17:28.502Z,2.40
2018-04-13T01:19:54.493Z,2.37
2018-04-13T01:22:20.445Z,1.90
2018-04-13T01:24:46.438Z,2.10
2018-04-13T01:27:12.413Z,2.20
2018-04-13T01:29:38.406Z,2.23
2018-04-13T01:32:04.378Z,2.30
2018-04-13T01:34:30.335Z,2.17
2018-04-13T01:36:56.327Z,1.80
2018-04-13T01:39:22.274Z,2.37
2018-04-13T01:41:48.240Z,2.37
2018-04-13T01:44:14.198Z,2.10
2018-04-13T01:46:40.158Z,2.00
2018-04-13T01:49:06.137Z,1.83
2018-04-13T01:51:32.112Z,2.10
2018-04-13T01:53:58.144Z,1.70
2018-04-13T01:56:24.097Z,1.60
2018-04-13T01:58:50.067Z,1.83
2018-04-13T02:01:16.101Z,1.70
2018-04-13T02:03:42.034Z,1.80
2018-04-13T02:06:07.990Z,1.70
2018-04-13T02:08:33.955Z,1.63
2018-04-13T02:10:59.904Z,1.60
2018-04-13T02:13:25.877Z,1.53
2018-04-13T02:15:51.853Z,1.60
2018-04-13T02:18:17.775Z,1.60
2018-04-13T02:20:43.710Z,1.70
2018-04-13T02:23:09.659Z,1.87
2018-04-13T02:25:35.605Z,1.70
2018-04-13T02:28:01.534Z,1.50
2018-04-13T02:30:27.462Z,1.70
2018-04-13T02:32:53.406Z,2.07
2018-04-13T02:35:19.334Z,1.80
2018-04-13T02:37:45.259Z,1.77
2018-04-13T02:40:11.188Z,2.10
2018-04-13T02:42:37.150Z,1.80
2018-04-13T02:45:03.090Z,1.80
2018-04-13T02:47:29.082Z,1.70
2018-04-13T02:49:55.005Z,1.60
2018-04-13T02:52:20.957Z,1.60
2018-04-13T02:54:46.900Z,1.80
2018-04-13T02:57:12.833Z,1.83
2018-04-13T02:59:38.753Z,1.87
2018-04-13T03:02:04.685Z,1.80
2018-04-13T03:04:30.622Z,2.20
2018-04-13T03:06:56.566Z,2.10
2018-04-13T03:09:22.478Z,2.10
2018-04-13T03:11:48.390Z,1.73
2018-04-13T03:14:14.310Z,1.80
2018-04-13T03:16:40.237Z,1.70
2018-04-13T03:19:06.177Z,1.90
2018-04-13T03:21:32.116Z,1.63
2018-04-13T03:23:58.149Z,1.70
2018-04-13T03:26:24.064Z,1.60
2018-04-13T03:28:49.995Z,1.53
2018-04-13T03:31:16.077Z,1.70
2018-04-13T03:33:41.981Z,1.50
2018-04-13T03:36:07.917Z,1.57
2018-04-13T03:38:33.853Z,1.60
2018-04-13T03:40:59.775Z,1.47
2018-04-13T03:43:25.730Z,1.60
2018-04-13T03:45:51.662Z,1.60
2018-04-13T03:48:17.574Z,1.70
2018-04-13T03:50:43.480Z,1.80
2018-04-13T03:53:09.444Z,1.60
2018-04-13T03:55:35.390Z,1.80
2018-04-13T03:58:01.323Z,1.50
2018-04-13T04:00:27.245Z,1.50
2018-04-13T04:02:54.469Z,1.33
2018-04-13T04:05:20.402Z,1.50
2018-04-13T04:07:46.354Z,2.03
2018-04-13T04:10:12.788Z,1.90
2018-04-13T04:12:38.832Z,1.77
2018-04-13T04:15:04.775Z,1.60
2018-04-13T04:17:30.681Z,1.80
2018-04-13T04:20:02.796Z,1.67
2018-04-13T04:22:34.905Z,1.60
2018-04-13T04:25:06.887Z,1.63
2018-04-13T04:27:32.847Z,1.40
2018-04-13T04:29:58.771Z,1.50
2018-04-13T04:32:24.664Z,1.57
2018-04-13T04:34:50.572Z,1.60
2018-04-13T04:37:16.475Z,1.80
2018-04-13T04:39:42.389Z,1.60
2018-04-13T04:42:08.299Z,1.53
2018-04-13T04:44:34.191Z,1.60
2018-04-13T04:47:00.097Z,1.57
2018-04-13T04:49:26.275Z,1.97
2018-04-13T04:51:52.155Z,1.93
2018-04-13T04:54:18.020Z,1.80
2018-04-13T04:56:43.944Z,2.00
2018-04-13T04:59:09.814Z,1.47
2018-04-13T05:01:35.722Z,1.80
2018-04-13T05:04:01.637Z,1.77
2018-04-13T05:06:27.525Z,1.60
2018-04-13T05:08:53.410Z,1.63
2018-04-13T05:11:19.293Z,1.87
2018-04-13T05:13:45.195Z,1.50
2018-04-13T05:16:11.081Z,1.80
2018-04-13T05:18:36.962Z,1.70
2018-04-13T05:21:02.839Z,1.57
2018-04-13T05:23:28.712Z,1.53
2018-04-13T05:25:54.687Z,2.00
2018-04-13T05:28:20.576Z,1.80
2018-04-13T05:30:46.462Z,2.00
2018-04-13T05:33:12.358Z,1.37
2018-04-13T05:35:38.252Z,1.63
2018-04-13T05:38:04.131Z,1.77
2018-04-13T05:40:30.048Z,1.40
2018-04-13T05:42:55.991Z,1.57
2018-04-13T05:45:21.880Z,1.83
2018-04-13T05:47:47.776Z,1.50
2018-04-13T05:50:13.704Z,1.80
2018-04-13T05:52:39.594Z,1.80
2018-04-13T05:55:05.508Z,1.60
2018-04-13T05:57:31.470Z,1.50
2018-04-13T05:59:57.390Z,1.90
2018-04-13T06:02:23.288Z,1.90
2018-04-13T06:04:49.163Z,1.70
2018-04-13T06:07:15.028Z,1.80
2018-04-13T06:09:40.943Z,1.57
2018-04-13T06:12:06.846Z,1.90
2018-04-13T06:14:32.728Z,1.50
2018-04-13T06:16:58.622Z,1.83
2018-04-13T06:19:24.511Z,1.70
2018-04-13T06:21:50.718Z,1.73
2018-04-13T06:24:16.688Z,2.07
2018-04-13T06:26:42.531Z,1.90
2018-04-13T06:29:08.400Z,1.80
2018-04-13T06:31:34.283Z,2.30
2018-04-13T06:34:00.219Z,1.73
2018-04-13T06:36:26.136Z,1.73
2018-04-13T06:38:52.053Z,1.63
2018-04-13T06:41:17.952Z,1.70
2018-04-13T06:43:43.913Z,2.00
2018-04-13T06:46:09.805Z,1.77
2018-04-13T06:48:35.712Z,1.77
2018-04-13T06:51:01.615Z,1.93
2018-04-13T06:53:27.494Z,1.90
2018-04-13T06:55:53.371Z,1.70
2018-04-13T06:58:19.275Z,1.77
2018-04-13T07:00:45.152Z,2.07
2018-04-13T07:03:11.022Z,1.80
2018-04-13T07:05:36.915Z,1.50
2018-04-13T07:08:02.812Z,2.00
2018-04-13T07:10:28.864Z,1.93
2018-04-13T07:12:54.740Z,1.87
2018-04-13T07:15:20.613Z,1.80
2018-04-13T07:17:46.488Z,2.40
2018-04-13T07:20:12.383Z,1.83
2018-04-13T07:22:38.284Z,1.90
2018-04-13T07:25:04.171Z,2.00
2018-04-13T07:27:30.063Z,1.90
2018-04-13T07:29:56.033Z,1.63
2018-04-13T07:32:21.928Z,1.60
2018-04-13T07:34:47.842Z,1.63
2018-04-13T07:37:13.762Z,1.87
2018-04-13T07:39:40.002Z,1.80
2018-04-13T07:42:05.636Z,1.97
2018-04-13T07:44:31.781Z,1.70
2018-04-13T07:46:57.467Z,1.80
2018-04-13T07:49:23.379Z,2.00
2018-04-13T07:51:49.248Z,2.13
2018-04-13T07:54:15.160Z,2.10
2018-04-13T07:56:41.046Z,1.87
2018-04-13T07:59:06.950Z,2.10
2018-04-13T08:01:32.827Z,2.10
2018-04-13T08:03:58.692Z,2.67
2018-04-13T08:06:24.567Z,2.60
2018-04-13T08:08:50.447Z,2.53
2018-04-13T08:11:16.540Z,2.63
2018-04-13T08:13:42.277Z,2.20
2018-04-13T08:16:08.158Z,2.70
2018-04-13T08:18:34.052Z,2.80
2018-04-13T08:20:59.930Z,2.30
2018-04-13T08:23:25.880Z,2.67
2018-04-13T08:25:51.772Z,2.60
2018-04-13T08:28:17.657Z,3.40
2018-04-13T08:30:43.551Z,2.63
2018-04-13T08:33:09.448Z,2.40
2018-04-13T08:35:35.417Z,2.53
2018-04-13T08:38:01.239Z,2.40
2018-04-13T08:40:27.155Z,2.50
2018-04-13T08:42:53.091Z,1.83
2018-04-13T08:45:18.984Z,2.30
2018-04-13T08:47:44.871Z,2.47
2018-04-13T08:50:10.818Z,1.80
2018-04-13T08:52:36.705Z,2.37
2018-04-13T08:55:02.758Z,2.30
2018-04-13T08:57:28.649Z,2.20
2018-04-13T08:59:54.532Z,2.37
2018-04-13T09:02:20.419Z,2.23
2018-04-13T09:04:46.313Z,2.20
2018-04-13T09:07:12.194Z,2.37
2018-04-13T09:09:38.102Z,2.20
2018-04-13T09:12:04.000Z,2.40
2018-04-13T09:14:35.927Z,2.10
2018-04-13T09:17:01.813Z,2.00
2018-04-13T09:19:27.718Z,1.87
2018-04-13T09:21:53.624Z,2.27
2018-04-13T09:24:19.503Z,2.20
2018-04-13T09:26:45.457Z,2.30
2018-04-13T09:29:11.360Z,2.40
2018-04-13T09:31:38.109Z,2.20
2018-04-13T09:34:04.013Z,1.97
2018-04-13T09:36:29.899Z,2.23
2018-04-13T09:38:55.783Z,2.27
2018-04-13T09:41:21.668Z,2.10
2018-04-13T09:43:47.560Z,2.17
2018-04-13T09:46:13.507Z,2.13
2018-04-13T09:48:39.395Z,2.23
2018-04-13T09:51:05.275Z,2.30
2018-04-13T09:53:31.164Z,1.90
2018-04-13T09:55:57.032Z,2.50
2018-04-13T09:58:22.940Z,2.20
2018-04-13T10:00:54.762Z,2.10
2018-04-13T10:03:20.631Z,2.23
2018-04-13T10:05:46.868Z,2.20
2018-04-13T10:08:12.782Z,2.23
2018-04-13T10:10:38.776Z,2.00
2018-04-13T10:13:04.717Z,2.10
2018-04-13T10:15:31.036Z,2.70
2018-04-13T10:17:58.735Z,2.23
2018-04-13T10:20:24.663Z,2.20
2018-04-13T10:22:50.564Z,2.93
2018-04-13T10:25:16.449Z,2.27
2018-04-13T10:27:42.318Z,2.60
2018-04-13T10:30:13.453Z,2.40
2018-04-13T10:32:39.549Z,2.40
2018-04-13T10:35:05.455Z,2.30
2018-04-13T10:37:31.331Z,2.43
2018-04-13T10:39:57.223Z,2.30
2018-04-13T10:42:23.113Z,2.33
2018-04-13T10:44:48.996Z,2.40
2018-04-13T10:47:14.986Z,2.50
2018-04-13T10:49:40.863Z,2.57
2018-04-13T10:52:06.756Z,2.70
2018-04-13T10:54:32.669Z,2.37
2018-04-13T10:56:58.748Z,3.20
2018-04-13T10:59:24.655Z,2.40
2018-04-13T11:01:50.640Z,2.53
2018-04-13T11:04:16.538Z,2.60
2018-04-13T11:06:42.407Z,2.50
2018-04-13T11:09:08.292Z,2.43
2018-04-13T11:11:34.170Z,2.80
2018-04-13T11:14:00.139Z,2.73
2018-04-13T11:16:26.019Z,2.80
2018-04-13T11:18:51.926Z,3.10
2018-04-13T11:21:17.795Z,2.67
2018-04-13T11:23:43.680Z,3.30
2018-04-13T11:26:09.591Z,2.80
2018-04-13T11:28:35.479Z,3.00
2018-04-13T11:31:01.355Z,2.57
2018-04-13T11:33:27.240Z,3.13
2018-04-13T11:35:53.123Z,2.60
2018-04-13T11:38:19.025Z,2.90
2018-04-13T11:40:44.912Z,2.90
2018-04-13T11:43:10.779Z,2.93
2018-04-13T11:45:36.665Z,3.10
2018-04-13T11:48:02.573Z,2.80
2018-04-13T11:50:28.515Z,3.00
2018-04-13T11:52:54.395Z,2.83
2018-04-13T11:55:20.271Z,2.77
2018-04-13T11:57:46.467Z,2.57
2018-04-13T12:00:12.351Z,3.07
2018-04-13T12:02:38.255Z,2.90
2018-04-13T12:05:04.133Z,2.93
2018-04-13T12:07:30.009Z,3.10
2018-04-13T12:09:55.899Z,2.87
2018-04-13T12:12:24.335Z,2.70
2018-04-13T12:14:50.246Z,3.07
2018-04-13T12:17:16.123Z,3.10
2018-04-13T12:19:42.043Z,3.23
2018-04-13T12:22:07.921Z,2.83
2018-04-13T12:24:33.838Z,3.03
2018-04-13T12:26:59.703Z,3.20
2018-04-13T12:29:27.017Z,2.80
2018-04-13T12:31:53.467Z,2.97
2018-04-13T12:34:19.392Z,2.77
2018-04-13T12:36:45.285Z,2.90
2018-04-13T12:39:11.206Z,2.60
2018-04-13T12:41:37.092Z,3.00
2018-04-13T12:44:03.016Z,2.60
2018-04-13T12:46:28.891Z,2.70
2018-04-13T12:48:54.772Z,2.47
2018-04-13T12:51:20.650Z,2.80
2018-04-13T12:53:46.604Z,2.60
2018-04-13T12:56:12.515Z,2.93
2018-04-13T12:58:38.399Z,2.63
2018-04-13T13:01:04.299Z,2.70
2018-04-13T13:03:30.207Z,2.37
2018-04-13T13:05:56.083Z,3.07
2018-04-13T13:08:22.012Z,2.90
2018-04-13T13:10:47.889Z,2.50
2018-04-13T13:13:13.759Z,2.50
2018-04-13T13:15:39.666Z,2.50
2018-04-13T13:18:05.589Z,2.60
2018-04-13T13:20:31.525Z,2.50
2018-04-13T13:22:57.416Z,3.20
2018-04-13T13:25:23.329Z,2.50
2018-04-13T13:27:49.233Z,2.93
2018-04-13T13:30:15.115Z,2.83
2018-04-13T13:32:41.133Z,2.60
2018-04-13T13:35:07.028Z,2.80
2018-04-13T13:37:32.923Z,2.50
2018-04-13T13:39:58.786Z,2.17
2018-04-13T13:42:24.664Z,2.70
2018-04-13T13:44:50.553Z,2.67
2018-04-13T13:47:16.426Z,2.50
2018-04-13T13:49:42.325Z,2.93
2018-04-13T13:52:08.208Z,2.50
2018-04-13T13:54:34.108Z,2.50
2018-04-13T13:57:00.008Z,2.30
2018-04-13T13:59:25.895Z,2.20
2018-04-13T14:01:51.819Z,2.30
2018-04-13T14:04:17.699Z,2.50
2018-04-13T14:06:43.580Z,2.57
2018-04-13T14:09:09.485Z,2.33
2018-04-13T14:11:35.370Z,2.27
2018-04-13T14:14:01.249Z,2.53
2018-04-13T14:16:27.136Z,2.00
2018-04-13T14:18:53.019Z,2.20
2018-04-13T14:21:18.929Z,2.00
2018-04-13T14:23:44.830Z,2.20
2018-04-13T14:26:10.716Z,2.43
2018-04-13T14:28:36.615Z,2.20
2018-04-13T14:31:02.503Z,2.70
2018-04-13T14:33:28.447Z,2.10
2018-04-13T14:35:54.332Z,2.30
2018-04-13T14:38:20.223Z,1.87
2018-04-13T14:40:46.121Z,2.20
2018-04-13T14:43:12.011Z,2.10
2018-04-13T14:45:37.923Z,2.40
2018-04-13T14:48:03.797Z,2.17
2018-04-13T14:50:29.672Z,2.00
2018-04-13T14:52:55.560Z,2.13
2018-04-13T14:55:21.481Z,1.93
2018-04-13T14:57:47.440Z,2.13
2018-04-13T15:00:13.324Z,2.10
2018-04-13T15:02:39.191Z,2.23
2018-04-13T15:05:05.101Z,2.27
2018-04-13T15:07:30.989Z,1.90
2018-04-13T15:09:56.902Z,1.97
2018-04-13T15:12:22.780Z,2.07
2018-04-13T15:14:48.656Z,2.30
2018-04-13T15:17:14.536Z,1.93
2018-04-13T15:19:40.413Z,2.13
2018-04-13T15:22:06.340Z,1.73
2018-04-13T15:24:32.223Z,2.20
2018-04-13T15:26:58.117Z,2.07
2018-04-13T15:29:23.993Z,2.23
2018-04-13T15:31:49.856Z,2.10
2018-04-13T15:34:15.737Z,2.50
2018-04-13T15:36:41.628Z,2.43
2018-04-13T15:39:07.545Z,2.63
2018-04-13T15:41:33.452Z,2.17
2018-04-13T15:43:59.362Z,1.80
2018-04-13T15:46:25.237Z,2.30
2018-04-13T15:48:51.184Z,2.20
2018-04-13T15:51:17.067Z,2.00
2018-04-13T15:53:42.984Z,2.40
2018-04-13T15:56:08.901Z,2.40
2018-04-13T15:58:34.813Z,2.20
2018-04-13T16:01:00.712Z,2.03
2018-04-13T16:03:26.603Z,2.13
2018-04-13T16:05:52.516Z,2.10
2018-04-13T16:08:18.405Z,2.13
2018-04-13T16:10:44.298Z,2.27
2018-04-13T16:13:10.232Z,2.50
2018-04-13T16:15:36.183Z,2.60
2018-04-13T16:18:02.066Z,2.37
2018-04-13T16:20:27.940Z,2.40
2018-04-13T16:22:53.820Z,2.27
2018-04-13T16:25:19.767Z,2.30
2018-04-13T16:27:45.659Z,2.37
2018-04-13T16:30:11.536Z,2.50
2018-04-13T16:32:37.428Z,2.47
2018-04-13T16:35:03.318Z,2.30
2018-04-13T16:37:29.235Z,2.77
2018-04-13T16:39:55.203Z,2.50
2018-04-13T16:42:21.084Z,2.60
2018-04-13T16:44:47.004Z,2.33
2018-04-13T16:47:12.888Z,2.90
2018-04-13T16:49:38.818Z,2.43
2018-04-13T16:52:04.701Z,2.60
2018-04-13T16:54:30.619Z,3.80
2018-04-13T16:56:56.504Z,3.40
2018-04-13T16:59:22.410Z,4.13
2018-04-13T17:01:48.311Z,2.63
2018-04-13T17:04:14.191Z,3.47
2018-04-13T17:06:40.081Z,3.10
2018-04-13T17:09:05.999Z,2.60
2018-04-13T17:11:31.890Z,3.20
2018-04-13T17:13:57.795Z,2.70
2018-04-13T17:16:24.856Z,3.70
2018-04-13T17:18:52.128Z,3.73
2018-04-13T17:21:19.132Z,2.73
2018-04-13T17:23:45.121Z,4.63
2018-04-13T17:26:11.023Z,2.60
2018-04-13T17:28:36.903Z,4.10
2018-04-13T17:31:02.789Z,3.30
2018-04-13T17:33:28.734Z,3.00
2018-04-13T17:35:54.615Z,3.30
2018-04-13T17:38:20.519Z,5.10
2018-04-13T17:40:46.404Z,2.67
2018-04-13T17:43:12.293Z,4.60
2018-04-13T17:45:38.175Z,2.87
2018-04-13T17:48:04.055Z,2.60
2018-04-13T17:50:29.976Z,3.57
2018-04-13T17:52:55.889Z,3.57
2018-04-13T17:55:21.771Z,3.83
2018-04-13T17:57:47.650Z,2.77
2018-04-13T18:00:13.544Z,3.30
2018-04-13T18:02:39.439Z,2.87
2018-04-13T18:05:05.339Z,2.63
2018-04-13T18:07:31.223Z,3.63
2018-04-13T18:09:57.163Z,2.90
2018-04-13T18:12:23.031Z,2.90
2018-04-13T18:14:48.936Z,3.30
2018-04-13T18:17:14.809Z,3.10
2018-04-13T18:19:40.683Z,3.20
2018-04-13T18:22:06.584Z,4.10
2018-04-13T18:24:32.460Z,3.00
2018-04-13T18:26:58.418Z,3.10
2018-04-13T18:29:24.336Z,3.90
2018-04-13T18:31:50.237Z,2.73
2018-04-13T18:34:16.154Z,2.90
2018-04-13T18:36:42.050Z,3.60
2018-04-13T18:41:53.743Z,2.03
2018-04-13T18:44:19.632Z,2.83
2018-04-13T18:46:45.523Z,2.60
2018-04-13T18:49:11.447Z,2.13
2018-04-13T18:51:37.328Z,2.47
2018-04-13T18:54:03.224Z,2.60
2018-04-13T18:56:29.108Z,2.37
2018-04-13T18:58:54.999Z,2.03
2018-04-13T19:01:20.884Z,2.43
2018-04-13T19:03:46.803Z,2.47
2018-04-13T19:06:12.731Z,2.20
2018-04-13T19:08:38.608Z,2.83
2018-04-13T19:11:04.518Z,2.07
2018-04-13T19:13:30.420Z,2.30
2018-04-13T19:15:56.341Z,2.70
2018-04-13T19:18:22.221Z,2.70
2018-04-13T19:20:48.101Z,3.37
2018-04-13T19:23:14.000Z,3.80
2018-04-13T19:25:39.896Z,2.97
2018-04-13T19:28:05.788Z,2.67
2018-04-13T19:30:31.664Z,3.00
2018-04-13T19:32:57.583Z,3.20
2018-04-13T19:35:23.487Z,2.57
2018-04-13T19:37:49.356Z,2.90
2018-04-13T19:40:15.235Z,2.40
2018-04-13T19:42:41.128Z,2.60
2018-04-13T19:45:07.033Z,2.33
2018-04-13T19:47:32.951Z,2.47
2018-04-13T19:49:58.845Z,2.83
2018-04-13T19:52:24.912Z,3.00
2018-04-13T19:54:50.812Z,2.40
2018-04-13T19:57:16.776Z,2.43
2018-04-13T19:59:42.684Z,2.70
2018-04-13T20:02:08.556Z,2.60
2018-04-13T20:04:34.420Z,2.70
2018-04-13T20:07:00.321Z,2.30
2018-04-13T20:09:26.228Z,2.80
2018-04-13T20:11:52.122Z,2.10
2018-04-13T20:14:22.964Z,2.53
2018-04-13T20:16:48.855Z,1.87
2018-04-13T20:19:14.729Z,2.37
2018-04-13T20:21:40.661Z,1.90
2018-04-13T20:24:06.556Z,2.30
2018-04-13T20:26:32.419Z,2.10
2018-04-13T20:28:58.384Z,1.93
2018-04-13T20:31:24.331Z,2.10
2018-04-13T20:33:50.219Z,1.80
2018-04-13T20:36:16.143Z,2.00
2018-04-13T20:38:42.020Z,1.97
2018-04-13T20:41:07.903Z,1.93
2018-04-13T20:43:33.791Z,2.00
2018-04-13T20:45:59.680Z,2.00
2018-04-13T20:48:25.591Z,2.40
2018-04-13T20:50:51.480Z,1.60
2018-04-13T20:53:17.360Z,1.80
2018-04-13T20:55:43.240Z,2.07
2018-04-13T20:58:09.140Z,1.70
2018-04-13T21:00:35.043Z,1.70
2018-04-13T21:03:00.908Z,1.60
2018-04-13T21:05:26.791Z,1.90
2018-04-13T21:07:52.697Z,1.70
2018-04-13T21:10:18.604Z,1.93
2018-04-13T21:12:44.526Z,2.13
2018-04-13T21:15:10.399Z,1.50
2018-04-13T21:17:36.275Z,1.80
2018-04-13T21:20:02.164Z,1.70
2018-04-13T21:22:28.071Z,1.90
2018-04-13T21:24:54.026Z,1.70
2018-04-13T21:27:19.915Z,1.50
2018-04-13T21:29:45.795Z,1.47
2018-04-13T21:32:11.670Z,1.70
2018-04-13T21:34:37.558Z,1.60
2018-04-13T21:37:03.432Z,1.90
2018-04-13T21:39:29.328Z,1.47
2018-04-13T21:41:55.232Z,1.73
2018-04-13T21:44:21.164Z,1.70
2018-04-13T21:46:47.056Z,1.63
2018-04-13T21:49:12.929Z,1.80
2018-04-13T21:51:38.874Z,1.80
2018-04-13T21:54:04.772Z,1.70
2018-04-13T21:56:30.699Z,1.80
2018-04-13T21:58:56.588Z,1.40
2018-04-13T22:01:22.485Z,1.90
2018-04-13T22:03:48.394Z,1.70
2018-04-13T22:06:14.296Z,1.50
2018-04-13T22:08:40.167Z,1.60
2018-04-13T22:11:06.040Z,1.33
2018-04-13T22:13:31.923Z,1.87
2018-04-13T22:15:57.824Z,1.70
2018-04-13T22:18:23.774Z,1.57
2018-04-13T22:20:49.739Z,1.43
2018-04-13T22:23:15.636Z,1.50
2018-04-13T22:25:41.540Z,1.80
2018-04-13T22:28:07.479Z,1.50
2018-04-13T22:30:33.367Z,1.47
2018-04-13T22:32:59.331Z,1.60
2018-04-13T22:35:25.220Z,1.80
2018-04-13T22:37:51.111Z,1.50
2018-04-13T22:40:17.008Z,1.80
2018-04-13T22:42:42.915Z,1.60
2018-04-13T22:45:08.818Z,1.80
2018-04-13T22:47:34.699Z,1.70
2018-04-13T22:50:00.585Z,1.70
2018-04-13T22:52:26.495Z,1.50
2018-04-13T22:54:52.381Z,1.40
2018-04-13T22:57:18.263Z,1.67
2018-04-13T22:59:44.149Z,1.43
2018-04-13T23:02:10.047Z,1.50
2018-04-13T23:04:35.948Z,1.63
2018-04-13T23:07:01.852Z,1.60
2018-04-13T23:09:27.739Z,1.60
2018-04-13T23:11:53.664Z,1.60
2018-04-13T23:14:19.552Z,1.53
2018-04-13T23:16:45.469Z,1.60
2018-04-13T23:19:11.350Z,1.60
2018-04-13T23:21:37.272Z,1.70
2018-04-13T23:24:03.152Z,1.80
2018-04-13T23:26:29.028Z,1.87
2018-04-13T23:28:54.943Z,1.63
2018-04-13T23:31:20.872Z,1.80
2018-04-13T23:33:46.752Z,1.50
2018-04-13T23:36:12.639Z,1.53
2018-04-13T23:38:38.523Z,1.40
2018-04-13T23:41:04.430Z,1.60
2018-04-13T23:43:30.328Z,1.43
2018-04-13T23:45:56.219Z,1.40
2018-04-13T23:48:22.180Z,1.40
2018-04-13T23:50:48.079Z,1.50
2018-04-13T23:53:13.999Z,1.40
2018-04-13T23:55:39.890Z,1.67
2018-04-13T23:58:05.776Z,1.53
